KAGC

Allegheny County Airport

Pittsburgh, Pennsylvania, USA
METAR KAGC 211453Z 09005KT 10SM CLR 07/M02 A3045 RMK AO2 SLP324 T00721022 58003
Observed Flight Rules
Apr-21 @ 14:53 UTC (46 minutes ago) Visual Flight Rules
Wind Visibility Clouds
90° at 5 knots 10 miles
  • Clear skies
Temperatures Readings
Current 7°C / 45°F
Dewpoint -2°C / 28°F
Humidity 53%
Altimeter 30.45" Hg
Pressure 1032.4 hPa
Elevation 389
METAR KAGC 211453Z 09005KT 10SM CLR 07/M02 A3045 RMK AO2 SLP324 T00721022 58003
Observed Flight Rules
Apr-21 @ 14:53 UTC
(46 minutes ago)
VFR
Wind Visibility
90° at 5 knots 10 miles
Clouds
  • Clear skies
Temperature Dewpoint
7°C / 45°F -2°C / 28°F
Humidity Altimeter Pressure
53% 30.45" Hg 1032.4 hPa